Time;durP1;ratioP1;P1;durP2;ratioP2;P2;SDS_P1;SDS_P2;PMS_P1;PMS_P2;Temp;Humidity;BMP_temperature;BMP_pressure;BME280_temperature;BME280_humidity;BME280_pressure;Samples;Min_cycle;Max_cycle;Signal;HPM_P1;HPM_P2
2023/05/27 00:02:12;;;;;;;;;;;;;;;12.70;90.20;96549.97;5060147;28;19959;-74
2023/05/27 00:04:38;;;;;;;;;;;;;;;12.66;89.90;96554.53;5052596;28;19929;-74
2023/05/27 00:07:04;;;;;;;;;;;;;;;12.73;88.50;96552.41;5057155;28;19928;-74
2023/05/27 00:09:31;;;;;;;;;;;;;;;12.69;88.78;96550.91;5052773;28;19970;-74
2023/05/27 00:11:58;;;;;;;;;;;;;;;12.78;87.49;96547.75;5056850;28;20524;-74
2023/05/27 00:14:24;;;;;;;;;;;;;;;12.82;87.22;96544.06;5052573;28;19933;-74
2023/05/27 00:16:51;;;;;;;;;;;;;;;12.72;87.41;96546.38;5060722;28;19925;-74
2023/05/27 00:19:17;;;;;;;;;;;;;;;12.81;87.10;96551.03;5062609;28;19928;-74
2023/05/27 00:21:44;;;;;;;;;;;;;;;12.75;87.34;96553.13;5036241;28;19968;-75
2023/05/27 00:24:11;;;;;;;;;;;;;;;12.64;88.56;96551.16;5054373;28;19924;-75
2023/05/27 00:26:38;;;;;;;;;;;;;;;12.56;88.70;96553.38;5046519;28;20331;-75
2023/05/27 00:29:06;;;;;;;;;;;;;;;12.56;88.34;96549.00;5062753;28;19929;-75
2023/05/27 00:31:32;;;;;;;;;;;;;;;12.65;87.68;96557.22;5055348;28;19925;-75
2023/05/27 00:33:58;;;;;;;;;;;;;;;12.67;86.75;96550.16;5066766;28;19978;-75
2023/05/27 00:36:25;;;;;;;;;;;;;;;12.71;86.40;96556.84;5050660;28;19932;-75
2023/05/27 00:38:51;;;;;;;;;;;;;;;12.79;86.05;96557.22;5061907;28;19951;-75
2023/05/27 00:41:18;;;;;;;;;;;;;;;12.88;84.84;96553.25;5061555;28;20349;-75
2023/05/27 00:43:44;;;;;;;;;;;;;;;12.83;85.70;96549.19;5045373;28;19932;-74
2023/05/27 00:46:12;;;;;;;;;;;;;;;12.98;85.21;96549.19;5044016;28;19931;-74
2023/05/27 00:48:38;;;;;;;;;;;;;;;13.19;84.45;96544.44;5047938;28;20295;-74
2023/05/27 00:51:05;;;;;;;;;;;;;;;13.24;84.01;96543.28;5063384;28;19932;-74
2023/05/27 00:53:35;;;;;;;;;;;;;;;13.07;83.69;96544.25;5065093;28;19971;-75
2023/05/27 00:56:02;;;;;;;;;;;;;;;13.01;83.78;96544.63;5059411;28;19925;-75
2023/05/27 00:58:29;;;;;;;;;;;;;;;13.20;83.40;96541.78;5053151;28;19931;-75
2023/05/27 01:00:56;;;;;;;;;;;;;;;13.22;82.52;96544.25;5061802;28;19951;-75
2023/05/27 01:03:23;;;;;;;;;;;;;;;13.09;83.19;96544.19;5062756;28;19928;-75
2023/05/27 01:05:52;;;;;;;;;;;;;;;12.78;85.30;96543.41;5049352;28;19925;-75
2023/05/27 01:08:25;;;;;;;;;;;;;;;12.77;85.38;96540.91;5054029;28;19925;-75
2023/05/27 01:10:52;;;;;;;;;;;;;;;12.70;86.28;96537.00;5055774;28;19964;-75
2023/05/27 01:13:23;;;;;;;;;;;;;;;12.64;87.16;96545.13;5065135;28;20386;-75
2023/05/27 01:15:51;;;;;;;;;;;;;;;12.70;87.11;96534.38;5057977;28;19928;-74
2023/05/27 01:18:18;;;;;;;;;;;;;;;12.73;87.33;96532.44;5065698;28;19928;-75
2023/05/27 01:20:48;;;;;;;;;;;;;;;12.87;87.03;96531.63;5048521;28;19924;-74
2023/05/27 01:23:15;;;;;;;;;;;;;;;12.83;86.37;96535.34;5059996;28;20402;-74
2023/05/27 01:25:42;;;;;;;;;;;;;;;12.96;86.94;96532.84;5055759;28;19929;-75
2023/05/27 01:28:08;;;;;;;;;;;;;;;13.04;86.59;96531.44;5064362;28;19932;-75
2023/05/27 01:30:35;;;;;;;;;;;;;;;13.08;86.54;96532.09;5053462;28;19933;-74
2023/05/27 01:33:04;;;;;;;;;;;;;;;13.06;87.45;96526.16;5055047;28;19925;-75
2023/05/27 01:35:32;;;;;;;;;;;;;;;13.09;89.55;96523.38;5059377;28;19924;-75
2023/05/27 01:38:01;;;;;;;;;;;;;;;12.98;91.03;96529.22;5063531;28;19928;-75
2023/05/27 01:40:29;;;;;;;;;;;;;;;12.97;94.14;96517.13;5057922;28;19940;-75
2023/05/27 01:42:57;;;;;;;;;;;;;;;12.56;91.51;96520.44;5054679;28;19929;-75
2023/05/27 01:45:23;;;;;;;;;;;;;;;12.65;92.35;96515.66;5058109;28;19925;-75
2023/05/27 01:47:51;;;;;;;;;;;;;;;12.66;93.75;96507.75;5052199;28;19924;-75
2023/05/27 01:50:17;;;;;;;;;;;;;;;12.57;90.89;96508.31;5060137;28;19978;-75
2023/05/27 01:52:43;;;;;;;;;;;;;;;12.60;94.80;96511.53;5050170;28;19925;-75
2023/05/27 01:55:10;;;;;;;;;;;;;;;12.56;93.52;96499.66;5069277;28;19931;-75
2023/05/27 01:57:38;;;;;;;;;;;;;;;12.22;93.30;96500.78;5055682;28;19933;-75
2023/05/27 02:00:08;;;;;;;;;;;;;;;12.11;95.28;96505.75;5068333;28;20450;-75
2023/05/27 02:02:34;;;;;;;;;;;;;;;11.79;97.90;96495.41;5054561;28;19933;-75
2023/05/27 02:05:01;;;;;;;;;;;;;;;11.82;98.96;96497.81;5052839;28;20383;-74
2023/05/27 02:07:27;;;;;;;;;;;;;;;11.93;98.65;96489.47;5059811;28;19940;-74
2023/05/27 02:09:54;;;;;;;;;;;;;;;11.77;100.00;96494.66;5050887;28;19929;-75
2023/05/27 02:12:20;;;;;;;;;;;;;;;11.74;100.00;96501.78;5065585;28;20401;-75
2023/05/27 02:14:49;;;;;;;;;;;;;;;11.82;100.00;96499.56;5056979;28;19935;-74
2023/05/27 02:17:16;;;;;;;;;;;;;;;12.01;100.00;96496.81;5063227;28;19924;-74
2023/05/27 02:19:42;;;;;;;;;;;;;;;12.06;99.55;96494.81;5054938;28;19948;-75
2023/05/27 02:22:09;;;;;;;;;;;;;;;12.13;98.53;96493.53;5043990;28;19925;-75
2023/05/27 02:24:35;;;;;;;;;;;;;;;12.20;97.78;96491.41;5061495;28;19970;-75
2023/05/27 02:27:02;;;;;;;;;;;;;;;12.28;97.91;96486.63;5061327;28;20350;-72
2023/05/27 02:29:28;;;;;;;;;;;;;;;12.24;98.98;96485.97;5065861;28;19947;-74
2023/05/27 02:31:55;;;;;;;;;;;;;;;12.06;98.71;96487.03;5046354;28;19925;-74
2023/05/27 02:34:22;;;;;;;;;;;;;;;12.13;98.63;96490.94;5063211;28;19928;-74
2023/05/27 02:36:48;;;;;;;;;;;;;;;12.04;98.94;96481.06;5048757;28;19926;-73
2023/05/27 02:39:14;;;;;;;;;;;;;;;11.88;100.00;96478.50;5036777;28;19929;-74
2023/05/27 02:41:41;;;;;;;;;;;;;;;11.81;100.00;96477.16;5052379;28;20020;-73
2023/05/27 02:44:08;;;;;;;;;;;;;;;11.68;100.00;96479.63;5058707;28;19932;-73
2023/05/27 02:46:34;;;;;;;;;;;;;;;11.64;100.00;96483.28;5059089;28;19924;-73
2023/05/27 02:49:01;;;;;;;;;;;;;;;11.43;100.00;96487.91;5050629;28;19968;-73
2023/05/27 02:51:29;;;;;;;;;;;;;;;11.36;100.00;96492.59;5050689;28;19929;-74
2023/05/27 02:53:55;;;;;;;;;;;;;;;11.26;100.00;96488.81;5045031;28;19925;-73
2023/05/27 02:56:22;;;;;;;;;;;;;;;11.19;100.00;96489.22;5058568;28;20397;-73
2023/05/27 02:58:48;;;;;;;;;;;;;;;11.17;100.00;96488.50;5054928;28;19931;-74
2023/05/27 03:01:14;;;;;;;;;;;;;;;11.00;100.00;96487.59;5046165;28;19970;-73
2023/05/27 03:03:40;;;;;;;;;;;;;;;10.91;100.00;96485.53;5041988;28;19929;-73
2023/05/27 03:06:08;;;;;;;;;;;;;;;10.90;100.00;96487.28;5045717;28;19929;-73
2023/05/27 03:08:34;;;;;;;;;;;;;;;10.84;100.00;96479.81;5058508;28;20015;-73
2023/05/27 03:11:01;;;;;;;;;;;;;;;10.80;100.00;96483.50;5054562;28;19936;-73
2023/05/27 03:13:27;;;;;;;;;;;;;;;10.74;100.00;96478.63;5056511;28;20311;-73
2023/05/27 03:15:54;;;;;;;;;;;;;;;10.81;100.00;96486.91;5048869;28;19925;-73
2023/05/27 03:18:20;;;;;;;;;;;;;;;10.75;100.00;96475.09;5058981;28;19925;-73
2023/05/27 03:20:47;;;;;;;;;;;;;;;10.72;100.00;96477.03;5054003;28;19929;-74
2023/05/27 03:23:15;;;;;;;;;;;;;;;10.68;100.00;96475.50;5043483;28;19978;-74
2023/05/27 03:25:41;;;;;;;;;;;;;;;10.48;100.00;96484.31;5047207;28;19929;-73
2023/05/27 03:28:07;;;;;;;;;;;;;;;10.28;100.00;96491.34;5048781;28;19929;-74
2023/05/27 03:30:33;;;;;;;;;;;;;;;10.16;100.00;96477.22;5056712;28;20296;-74
2023/05/27 03:33:00;;;;;;;;;;;;;;;10.30;100.00;96480.88;5047199;28;19925;-73
2023/05/27 03:35:26;;;;;;;;;;;;;;;10.47;100.00;96486.06;5060346;28;19932;-73
2023/05/27 03:37:52;;;;;;;;;;;;;;;10.18;100.00;96480.56;5066716;28;19929;-73
2023/05/27 03:40:20;;;;;;;;;;;;;;;10.05;100.00;96476.91;5053886;28;20383;-74
2023/05/27 03:42:46;;;;;;;;;;;;;;;10.19;100.00;96481.38;5059962;28;19958;-74
2023/05/27 03:45:12;;;;;;;;;;;;;;;10.40;100.00;96484.69;5063550;28;20276;-74
2023/05/27 03:47:39;;;;;;;;;;;;;;;10.43;100.00;96478.53;5062388;28;19929;-73
2023/05/27 03:50:05;;;;;;;;;;;;;;;10.50;100.00;96483.31;5070921;28;19924;-73
2023/05/27 03:52:32;;;;;;;;;;;;;;;10.44;100.00;96487.97;5045921;28;19929;-73
2023/05/27 03:54:58;;;;;;;;;;;;;;;10.43;100.00;96489.72;5048789;28;20346;-74
2023/05/27 03:57:26;;;;;;;;;;;;;;;10.09;100.00;96488.78;5057156;28;19933;-74
2023/05/27 03:59:52;;;;;;;;;;;;;;;10.16;100.00;96487.59;5065963;28;19929;-73
2023/05/27 04:02:18;;;;;;;;;;;;;;;10.03;100.00;96481.31;5065795;28;19928;-73
2023/05/27 04:04:46;;;;;;;;;;;;;;;9.89;100.00;96483.75;5054580;28;19929;-73
2023/05/27 04:07:13;;;;;;;;;;;;;;;9.80;100.00;96479.88;5064064;28;19936;-73
2023/05/27 04:09:39;;;;;;;;;;;;;;;9.89;100.00;96483.75;5053397;28;19940;-73
2023/05/27 04:12:07;;;;;;;;;;;;;;;10.10;100.00;96477.53;5068007;28;19924;-73
2023/05/27 04:14:35;;;;;;;;;;;;;;;10.15;100.00;96478.13;5059059;28;19956;-73
2023/05/27 04:17:01;;;;;;;;;;;;;;;10.29;100.00;96480.06;5059104;28;20652;-73
2023/05/27 04:19:27;;;;;;;;;;;;;;;10.47;100.00;96478.28;5064182;28;19928;-73
2023/05/27 04:21:54;;;;;;;;;;;;;;;10.58;100.00;96472.56;5058940;28;19925;-73
2023/05/27 04:24:20;;;;;;;;;;;;;;;10.71;100.00;96477.94;5062306;28;19928;-73
2023/05/27 04:26:46;;;;;;;;;;;;;;;10.81;100.00;96473.97;5048216;28;19929;-73
2023/05/27 04:29:13;;;;;;;;;;;;;;;10.85;100.00;96481.47;5058892;28;19972;-74
2023/05/27 04:31:40;;;;;;;;;;;;;;;10.94;100.00;96482.78;5053688;28;19925;-73
2023/05/27 04:34:07;;;;;;;;;;;;;;;10.97;100.00;96482.59;5065188;28;20350;-73
2023/05/27 04:36:34;;;;;;;;;;;;;;;11.00;100.00;96479.00;5067017;28;19975;-73
2023/05/27 04:39:01;;;;;;;;;;;;;;;11.15;100.00;96484.19;5060140;28;19932;-73
2023/05/27 04:41:28;;;;;;;;;;;;;;;11.19;100.00;96474.50;5059775;28;20011;-73
2023/05/27 04:43:54;;;;;;;;;;;;;;;11.33;100.00;96487.56;5057550;28;19925;-73
2023/05/27 04:46:20;;;;;;;;;;;;;;;11.36;100.00;96479.63;5064212;28;19970;-73
2023/05/27 04:48:48;;;;;;;;;;;;;;;11.40;100.00;96485.47;5056560;28;20387;-73
2023/05/27 04:51:15;;;;;;;;;;;;;;;11.50;100.00;96471.09;5047638;28;19925;-74
2023/05/27 04:53:41;;;;;;;;;;;;;;;11.53;100.00;96473.53;5060861;28;19936;-74
2023/05/27 04:56:09;;;;;;;;;;;;;;;11.59;100.00;96469.72;5054955;28;19986;-74
2023/05/27 04:58:36;;;;;;;;;;;;;;;11.61;100.00;96476.53;5051286;28;19924;-73
2023/05/27 05:01:04;;;;;;;;;;;;;;;11.73;100.00;96474.16;5047996;28;19925;-73
2023/05/27 05:03:39;;;;;;;;;;;;;;;11.88;100.00;96477.69;5052534;28;19924;-74
2023/05/27 05:06:07;;;;;;;;;;;;;;;11.98;100.00;96473.66;5048113;28;19933;-73
2023/05/27 05:08:33;;;;;;;;;;;;;;;12.11;100.00;96484.97;5052205;28;19936;-73
2023/05/27 05:10:59;;;;;;;;;;;;;;;12.11;100.00;96472.00;5044238;28;19979;-73
2023/05/27 05:13:28;;;;;;;;;;;;;;;12.03;100.00;96474.22;5068217;28;19925;-73
2023/05/27 05:15:55;;;;;;;;;;;;;;;12.05;100.00;96474.94;5054715;28;19932;-73
2023/05/27 05:18:21;;;;;;;;;;;;;;;11.89;100.00;96476.75;5062592;28;19955;-73
2023/05/27 05:20:47;;;;;;;;;;;;;;;12.18;100.00;96485.47;5045779;28;19925;-74
2023/05/27 05:23:15;;;;;;;;;;;;;;;12.33;100.00;96480.22;5052142;28;20307;-73
2023/05/27 05:25:41;;;;;;;;;;;;;;;12.10;100.00;96486.75;5054237;28;19928;-73
2023/05/27 05:28:07;;;;;;;;;;;;;;;12.34;100.00;96486.25;5057329;28;19929;-73
2023/05/27 05:30:33;;;;;;;;;;;;;;;12.66;100.00;96488.72;5050292;28;19924;-74
2023/05/27 05:33:00;;;;;;;;;;;;;;;12.65;100.00;96490.50;5052068;28;19936;-73
2023/05/27 05:35:26;;;;;;;;;;;;;;;12.83;100.00;96492.00;5049489;28;20345;-73
2023/05/27 05:37:52;;;;;;;;;;;;;;;13.14;100.00;96486.69;5056025;28;20383;-73
2023/05/27 05:40:20;;;;;;;;;;;;;;;13.16;100.00;96492.59;5052180;28;19928;-73
2023/05/27 05:42:46;;;;;;;;;;;;;;;13.01;100.00;96497.81;5062350;28;20372;-74
2023/05/27 05:45:13;;;;;;;;;;;;;;;13.23;100.00;96496.50;5055850;28;19972;-74
2023/05/27 05:47:39;;;;;;;;;;;;;;;13.01;100.00;96499.59;5051957;28;19936;-74
2023/05/27 05:50:06;;;;;;;;;;;;;;;12.81;100.00;96493.00;5058575;28;20291;-74
2023/05/27 05:52:32;;;;;;;;;;;;;;;13.22;100.00;96485.25;5054413;28;19956;-74
2023/05/27 05:54:58;;;;;;;;;;;;;;;13.05;100.00;96491.53;5062802;28;19929;-74
2023/05/27 05:57:26;;;;;;;;;;;;;;;13.35;100.00;96481.94;5059712;28;20269;-74
2023/05/27 05:59:52;;;;;;;;;;;;;;;13.61;100.00;96481.16;5046554;28;19925;-74
2023/05/27 06:02:18;;;;;;;;;;;;;;;13.83;100.00;96480.63;5061255;28;19971;-74
2023/05/27 06:04:45;;;;;;;;;;;;;;;14.02;100.00;96488.06;5047249;28;19929;-74
2023/05/27 06:07:11;;;;;;;;;;;;;;;14.11;100.00;96482.25;5062908;28;20706;-74
2023/05/27 06:09:37;;;;;;;;;;;;;;;14.23;98.58;96478.81;5049369;28;19925;-74
2023/05/27 06:12:04;;;;;;;;;;;;;;;14.36;99.59;96478.03;5060520;28;19970;-74
2023/05/27 06:14:31;;;;;;;;;;;;;;;14.30;94.48;96479.25;5054230;28;19929;-74
2023/05/27 06:16:57;;;;;;;;;;;;;;;14.54;95.22;96482.03;5057961;28;19932;-74
2023/05/27 06:19:24;;;;;;;;;;;;;;;14.71;95.31;96473.91;5044898;28;19924;-74
2023/05/27 06:21:50;;;;;;;;;;;;;;;14.80;98.37;96482.88;5043817;28;19929;-74
2023/05/27 06:24:16;;;;;;;;;;;;;;;14.95;96.84;96483.59;5041775;28;19975;-74
2023/05/27 06:26:42;;;;;;;;;;;;;;;14.94;97.59;96471.47;5035044;28;19925;-69
2023/05/27 06:29:09;;;;;;;;;;;;;;;15.07;93.00;96472.31;5059018;28;19932;-74
2023/05/27 06:31:37;;;;;;;;;;;;;;;15.09;90.18;96478.28;5053683;28;19966;-74
2023/05/27 06:34:03;;;;;;;;;;;;;;;15.20;90.73;96474.88;5060898;28;19924;-74
2023/05/27 06:36:29;;;;;;;;;;;;;;;15.26;91.14;96474.47;5051999;28;19924;-75
2023/05/27 06:38:56;;;;;;;;;;;;;;;15.30;86.88;96475.09;5050699;28;19925;-76
2023/05/27 06:41:23;;;;;;;;;;;;;;;15.45;91.19;96477.44;5061390;28;19928;-76
2023/05/27 06:43:50;;;;;;;;;;;;;;;15.66;84.99;96472.50;5047914;28;19971;-77
2023/05/27 06:46:16;;;;;;;;;;;;;;;15.83;92.14;96471.28;5054193;28;20689;-76
2023/05/27 06:48:44;;;;;;;;;;;;;;;16.08;87.94;96472.09;5061678;28;20386;-76
2023/05/27 06:51:10;;;;;;;;;;;;;;;16.07;86.62;96470.44;5061041;28;20013;-75
2023/05/27 06:53:36;;;;;;;;;;;;;;;16.35;81.92;96464.84;5060314;28;19963;-75
2023/05/27 06:56:03;;;;;;;;;;;;;;;16.36;79.16;96466.50;5060410;28;19929;-75
2023/05/27 06:58:29;;;;;;;;;;;;;;;16.29;82.58;96467.91;5057682;28;19924;-76
2023/05/27 07:00:55;;;;;;;;;;;;;;;16.34;85.84;96468.38;5054074;28;19933;-76
2023/05/27 07:03:22;;;;;;;;;;;;;;;16.24;85.01;96464.81;5060759;28;20365;-76
2023/05/27 07:05:49;;;;;;;;;;;;;;;16.45;82.04;96465.78;5045739;28;19932;-75
2023/05/27 07:08:16;;;;;;;;;;;;;;;16.59;79.53;96477.00;5050566;28;19931;-77
2023/05/27 07:10:42;;;;;;;;;;;;;;;16.67;80.90;96470.25;5055804;28;20403;-76
2023/05/27 07:13:08;;;;;;;;;;;;;;;16.51;79.97;96477.59;5056730;28;19995;-76
2023/05/27 07:15:34;;;;;;;;;;;;;;;16.38;82.44;96479.44;5053351;28;20311;-76
2023/05/27 07:18:01;;;;;;;;;;;;;;;16.72;85.37;96476.91;5068084;28;19928;-76
2023/05/27 07:20:28;;;;;;;;;;;;;;;16.78;82.88;96479.09;5063691;28;19938;-77
2023/05/27 07:22:55;;;;;;;;;;;;;;;16.98;79.27;96478.38;5056616;28;19978;-76
2023/05/27 07:25:21;;;;;;;;;;;;;;;16.92;83.71;96477.09;5066631;28;19928;-77
2023/05/27 07:27:48;;;;;;;;;;;;;;;17.07;81.75;96482.09;5062347;28;20413;-77
2023/05/27 07:30:15;;;;;;;;;;;;;;;17.28;78.30;96471.72;5055035;28;20008;-77
2023/05/27 07:32:41;;;;;;;;;;;;;;;17.23;79.57;96477.31;5067275;28;20693;-76
2023/05/27 07:35:08;;;;;;;;;;;;;;;17.38;83.63;96475.28;5069794;28;20305;-77
2023/05/27 07:37:34;;;;;;;;;;;;;;;17.54;79.60;96482.75;5064174;28;19924;-77
2023/05/27 07:40:02;;;;;;;;;;;;;;;17.25;74.82;96471.97;5056633;28;19932;-77
2023/05/27 07:42:28;;;;;;;;;;;;;;;17.16;72.98;96474.34;5056617;28;20007;-77
2023/05/27 07:44:55;;;;;;;;;;;;;;;17.51;79.99;96468.13;5066105;28;19928;-77
2023/05/27 07:47:21;;;;;;;;;;;;;;;17.68;79.76;96464.16;5058238;28;20031;-76
2023/05/27 07:49:47;;;;;;;;;;;;;;;17.77;74.86;96460.84;5066454;28;19925;-77
2023/05/27 07:52:13;;;;;;;;;;;;;;;17.74;79.79;96460.22;5057625;28;19924;-77
2023/05/27 07:54:40;;;;;;;;;;;;;;;17.79;75.75;96466.78;5061298;28;19979;-77
2023/05/27 07:57:08;;;;;;;;;;;;;;;17.80;84.22;96462.38;5068056;28;19928;-77
2023/05/27 07:59:34;;;;;;;;;;;;;;;17.71;72.82;96460.47;5060599;28;19934;-77
2023/05/27 08:02:00;;;;;;;;;;;;;;;18.03;79.76;96456.09;5059949;28;19932;-77
2023/05/27 08:04:26;;;;;;;;;;;;;;;18.27;81.40;96458.47;5048562;28;19974;-77
2023/05/27 08:06:53;;;;;;;;;;;;;;;18.17;72.20;96457.59;5063627;28;19971;-77
2023/05/27 08:09:19;;;;;;;;;;;;;;;18.26;73.36;96456.00;5049262;28;19956;-77
2023/05/27 08:11:45;;;;;;;;;;;;;;;18.51;73.23;96450.38;5057080;28;19925;-77
2023/05/27 08:14:13;;;;;;;;;;;;;;;18.64;69.66;96455.41;5055927;28;19937;-77
2023/05/27 08:16:39;;;;;;;;;;;;;;;18.90;72.96;96449.78;5044806;28;20344;-78
2023/05/27 08:19:05;;;;;;;;;;;;;;;19.08;72.47;96449.03;5056130;28;19932;-77
2023/05/27 08:21:32;;;;;;;;;;;;;;;18.84;74.45;96445.91;5051699;28;19933;-76
2023/05/27 08:23:58;;;;;;;;;;;;;;;18.90;75.20;96444.53;5057635;28;19978;-77
2023/05/27 08:26:26;;;;;;;;;;;;;;;19.00;70.73;96448.03;5058704;28;20338;-76
2023/05/27 08:28:52;;;;;;;;;;;;;;;18.66;74.25;96447.44;5066455;28;19976;-75
2023/05/27 08:31:19;;;;;;;;;;;;;;;18.62;69.30;96447.69;5054956;28;19932;-74
2023/05/27 08:33:46;;;;;;;;;;;;;;;18.98;73.21;96431.56;5058582;28;19929;-77
2023/05/27 08:36:14;;;;;;;;;;;;;;;19.17;74.22;96433.44;5059122;28;19967;-72
2023/05/27 08:38:41;;;;;;;;;;;;;;;19.09;72.18;96429.69;5058141;28;19925;-73
2023/05/27 08:41:07;;;;;;;;;;;;;;;18.85;76.16;96432.63;5062020;28;19932;-76
2023/05/27 08:43:34;;;;;;;;;;;;;;;18.84;74.48;96427.53;5062505;28;19932;-76
2023/05/27 08:46:01;;;;;;;;;;;;;;;19.16;71.68;96423.91;5059337;28;19960;-76
2023/05/27 08:48:28;;;;;;;;;;;;;;;19.23;71.59;96425.88;5065711;28;19974;-76
2023/05/27 08:50:55;;;;;;;;;;;;;;;19.54;82.58;96424.03;5060399;28;20426;-76
2023/05/27 08:53:22;;;;;;;;;;;;;;;19.69;70.26;96427.13;5063035;28;20409;-76
2023/05/27 08:55:51;;;;;;;;;;;;;;;19.20;71.99;96428.75;5063901;28;19975;-74
2023/05/27 08:58:18;;;;;;;;;;;;;;;19.45;72.59;96424.00;5047104;28;19924;-76
2023/05/27 09:00:44;;;;;;;;;;;;;;;19.71;68.98;96426.97;5060859;28;19932;-77
2023/05/27 09:03:11;;;;;;;;;;;;;;;19.68;69.06;96420.19;5058449;28;19978;-78
2023/05/27 09:05:38;;;;;;;;;;;;;;;19.75;66.46;96423.09;5052943;28;19959;-78
2023/05/27 09:08:05;;;;;;;;;;;;;;;20.11;68.77;96426.03;5055736;28;19932;-77
2023/05/27 09:10:37;;;;;;;;;;;;;;;19.94;75.60;96420.47;5055937;28;19928;-77
2023/05/27 09:13:03;;;;;;;;;;;;;;;19.56;71.61;96419.44;5067338;28;19994;-76
2023/05/27 09:15:31;;;;;;;;;;;;;;;19.63;69.25;96421.56;5065294;28;19924;-77
2023/05/27 09:17:57;;;;;;;;;;;;;;;19.96;71.61;96421.19;5053629;28;19964;-77
2023/05/27 09:20:25;;;;;;;;;;;;;;;20.12;63.51;96419.78;5061439;28;19932;-76
2023/05/27 09:22:56;;;;;;;;;;;;;;;20.20;70.18;96418.13;5049654;28;19936;-77
2023/05/27 09:25:24;;;;;;;;;;;;;;;20.37;70.63;96413.13;5049964;28;19929;-77
2023/05/27 09:27:50;;;;;;;;;;;;;;;19.97;67.57;96407.06;5051103;28;19924;-77
2023/05/27 09:30:19;;;;;;;;;;;;;;;20.24;64.94;96414.22;5051029;28;19935;-77
2023/05/27 09:32:46;;;;;;;;;;;;;;;20.15;73.79;96407.19;5051004;28;19932;-77
2023/05/27 09:35:13;;;;;;;;;;;;;;;20.44;68.42;96406.34;5065498;28;20355;-75
2023/05/27 09:37:40;;;;;;;;;;;;;;;20.36;74.33;96407.03;5056444;28;19925;-77
2023/05/27 09:40:09;;;;;;;;;;;;;;;20.40;66.73;96405.78;5052421;28;20024;-76
2023/05/27 09:42:42;;;;;;;;;;;;;;;20.63;71.73;96403.69;5059515;28;19925;-77
2023/05/27 09:45:12;;;;;;;;;;;;;;;20.74;67.84;96394.78;5050938;28;19994;-78
2023/05/27 09:47:39;;;;;;;;;;;;;;;21.13;68.12;96399.88;5047270;28;19935;-73
2023/05/27 09:50:08;;;;;;;;;;;;;;;21.14;65.16;96405.00;5049292;28;19936;-77
2023/05/27 09:52:35;;;;;;;;;;;;;;;21.09;68.57;96398.50;5042674;28;19929;-74
2023/05/27 09:55:02;;;;;;;;;;;;;;;21.32;63.90;96394.53;5048106;28;19979;-77
2023/05/27 09:57:31;;;;;;;;;;;;;;;21.30;57.41;96388.56;5053473;28;19929;-78
2023/05/27 10:00:00;;;;;;;;;;;;;;;21.16;66.05;96389.03;5064451;28;19960;-77
2023/05/27 10:02:27;;;;;;;;;;;;;;;21.34;59.12;96389.13;5053567;28;21019;-77
2023/05/27 10:04:54;;;;;;;;;;;;;;;21.11;65.86;96388.66;5046654;28;19929;-76
2023/05/27 10:07:22;;;;;;;;;;;;;;;20.82;63.42;96389.63;5059511;28;20383;-77
2023/05/27 10:09:50;;;;;;;;;;;;;;;21.17;62.92;96388.06;5047824;28;20430;-77
2023/05/27 10:12:17;;;;;;;;;;;;;;;21.27;71.22;96378.31;5061038;28;19936;-77
2023/05/27 10:14:46;;;;;;;;;;;;;;;21.35;60.81;96391.59;5044215;28;19971;-77
2023/05/27 10:17:12;;;;;;;;;;;;;;;21.45;61.66;96381.84;5061678;28;20430;-76
2023/05/27 10:19:49;;;;;;;;;;;;;;;21.57;62.93;96379.81;5047819;28;19929;-76
2023/05/27 10:22:15;;;;;;;;;;;;;;;21.66;60.52;96383.38;5049998;28;19928;-78
2023/05/27 10:24:42;;;;;;;;;;;;;;;21.20;56.09;96369.34;5048901;28;20043;-76
2023/05/27 10:27:09;;;;;;;;;;;;;;;21.34;57.12;96374.13;5048257;28;19928;-77
2023/05/27 10:29:37;;;;;;;;;;;;;;;21.48;56.22;96375.44;5060139;28;20081;-77
2023/05/27 10:32:05;;;;;;;;;;;;;;;21.05;57.67;96371.63;5044902;28;20015;-77
2023/05/27 10:34:34;;;;;;;;;;;;;;;21.64;64.89;96369.50;5058137;28;19928;-76
2023/05/27 10:37:01;;;;;;;;;;;;;;;21.69;65.89;96367.22;5054168;28;19944;-77
2023/05/27 10:39:27;;;;;;;;;;;;;;;21.61;63.19;96357.44;5049994;28;20032;-77
2023/05/27 10:41:54;;;;;;;;;;;;;;;21.21;62.00;96360.44;5050889;28;19975;-77
2023/05/27 10:44:26;;;;;;;;;;;;;;;21.39;58.93;96366.59;5051221;28;20280;-77
2023/05/27 10:47:00;;;;;;;;;;;;;;;21.20;56.04;96362.25;5059711;28;20401;-76
2023/05/27 10:49:35;;;;;;;;;;;;;;;21.24;65.89;96358.34;5060502;28;19936;-77
2023/05/27 10:52:06;;;;;;;;;;;;;;;21.68;66.57;96357.69;5063997;28;19928;-77
2023/05/27 10:54:34;;;;;;;;;;;;;;;21.73;59.33;96351.00;5062655;28;19924;-77
2023/05/27 10:57:02;;;;;;;;;;;;;;;21.85;58.11;96348.94;5060751;28;20407;-76
2023/05/27 10:59:34;;;;;;;;;;;;;;;21.78;54.73;96355.78;5057142;28;19933;-76
2023/05/27 11:02:00;;;;;;;;;;;;;;;21.62;61.70;96351.22;5055432;28;19932;-77
2023/05/27 11:04:34;;;;;;;;;;;;;;;21.59;58.83;96353.31;5047624;28;21316;-77
2023/05/27 11:07:01;;;;;;;;;;;;;;;21.74;56.18;96354.44;5063777;28;20007;-76
2023/05/27 11:09:27;;;;;;;;;;;;;;;21.90;64.70;96354.56;5050483;28;19932;-77
2023/05/27 11:11:54;;;;;;;;;;;;;;;21.77;57.86;96358.56;5051877;28;19974;-77
2023/05/27 11:14:20;;;;;;;;;;;;;;;21.91;58.22;96360.69;5043048;28;19964;-77
2023/05/27 11:16:47;;;;;;;;;;;;;;;22.06;67.19;96345.13;5047648;28;19940;-77
2023/05/27 11:19:14;;;;;;;;;;;;;;;21.93;59.61;96349.00;5055830;28;20315;-77
2023/05/27 11:21:46;;;;;;;;;;;;;;;21.48;55.23;96355.19;5048641;28;19931;-77
2023/05/27 11:24:15;;;;;;;;;;;;;;;21.59;58.78;96343.59;5060811;28;19924;-76
2023/05/27 11:26:43;;;;;;;;;;;;;;;21.60;63.43;96334.72;5051164;28;19956;-78
2023/05/27 11:29:09;;;;;;;;;;;;;;;21.75;56.82;96345.56;5070928;28;19932;-78
2023/05/27 11:31:36;;;;;;;;;;;;;;;21.53;60.50;96335.47;5058847;28;19975;-77
2023/05/27 11:34:02;;;;;;;;;;;;;;;21.35;56.97;96335.44;5062412;28;19932;-77
2023/05/27 11:36:30;;;;;;;;;;;;;;;21.25;59.11;96335.50;5059049;28;19939;-78
2023/05/27 11:38:59;;;;;;;;;;;;;;;21.30;55.12;96338.50;5050419;28;20003;-76
2023/05/27 11:41:26;;;;;;;;;;;;;;;21.39;57.23;96321.00;5055132;28;19970;-76
2023/05/27 11:43:55;;;;;;;;;;;;;;;21.49;57.26;96317.31;5047903;28;19960;-77
2023/05/27 11:46:22;;;;;;;;;;;;;;;21.51;58.96;96327.72;5063171;28;19928;-77
2023/05/27 11:48:49;;;;;;;;;;;;;;;21.16;56.56;96318.75;5059455;28;19994;-76
2023/05/27 11:51:15;;;;;;;;;;;;;;;21.31;68.41;96316.44;5060733;28;19970;-78
2023/05/27 11:53:44;;;;;;;;;;;;;;;21.68;63.91;96304.94;5052797;28;19928;-77
2023/05/27 11:56:12;;;;;;;;;;;;;;;21.82;58.76;96306.22;5070975;28;19930;-77
2023/05/27 11:58:38;;;;;;;;;;;;;;;21.83;60.39;96299.97;5053716;28;19929;-77
2023/05/27 12:01:05;;;;;;;;;;;;;;;21.50;58.00;96292.59;5065024;28;19929;-76
2023/05/27 12:03:33;;;;;;;;;;;;;;;21.17;62.05;96295.88;5058774;28;20037;-78
2023/05/27 12:05:59;;;;;;;;;;;;;;;21.34;63.83;96284.56;5056851;28;20410;-77
2023/05/27 12:08:26;;;;;;;;;;;;;;;21.29;56.74;96281.53;5056936;28;19928;-76
2023/05/27 12:10:53;;;;;;;;;;;;;;;21.52;61.88;96278.47;5065990;28;19924;-77
2023/05/27 12:13:21;;;;;;;;;;;;;;;21.43;63.17;96285.44;5064539;28;19931;-77
2023/05/27 12:15:47;;;;;;;;;;;;;;;21.52;61.62;96281.09;5061808;28;19968;-77
2023/05/27 12:18:14;;;;;;;;;;;;;;;21.63;61.62;96270.31;5048868;28;19955;-77
2023/05/27 12:20:40;;;;;;;;;;;;;;;21.61;55.99;96259.91;5055021;28;19963;-77
2023/05/27 12:23:06;;;;;;;;;;;;;;;21.70;59.34;96263.47;5056467;28;19998;-77
2023/05/27 12:25:33;;;;;;;;;;;;;;;21.64;56.11;96266.69;5063462;28;19928;-77
2023/05/27 12:27:59;;;;;;;;;;;;;;;21.53;54.90;96266.94;5047075;28;19925;-78
2023/05/27 12:30:26;;;;;;;;;;;;;;;21.56;61.48;96254.28;5062974;28;19932;-77
2023/05/27 12:32:53;;;;;;;;;;;;;;;21.81;62.72;96262.41;5049502;28;19928;-80
2023/05/27 12:35:19;;;;;;;;;;;;;;;21.41;53.57;96254.00;5062356;28;20371;-78
2023/05/27 12:37:45;;;;;;;;;;;;;;;21.63;57.41;96257.16;5061249;28;19928;-79
2023/05/27 12:40:14;;;;;;;;;;;;;;;21.82;54.36;96253.50;5054674;28;19967;-78
2023/05/27 12:42:40;;;;;;;;;;;;;;;21.83;55.47;96241.97;5065795;28;20290;-78